sensor_id;sensor_type;location;lat;lon;timestamp;P1;durP1;ratioP1;P2;durP2;ratioP2
19794;SDS011;10057;59.402;17.866;2022-08-25T00:00:11;4.10;;;1.63;;
19794;SDS011;10057;59.402;17.866;2022-08-25T00:02:40;8.47;;;1.80;;
19794;SDS011;10057;59.402;17.866;2022-08-25T00:05:22;6.40;;;1.73;;
19794;SDS011;10057;59.402;17.866;2022-08-25T00:07:59;6.80;;;1.60;;
19794;SDS011;10057;59.402;17.866;2022-08-25T00:10:27;4.97;;;1.90;;
19794;SDS011;10057;59.402;17.866;2022-08-25T00:12:55;11.13;;;1.63;;
19794;SDS011;10057;59.402;17.866;2022-08-25T00:15:22;6.53;;;1.57;;
19794;SDS011;10057;59.402;17.866;2022-08-25T00:17:49;5.37;;;1.67;;
19794;SDS011;10057;59.402;17.866;2022-08-25T00:20:19;7.20;;;1.60;;
19794;SDS011;10057;59.402;17.866;2022-08-25T00:22:47;5.83;;;1.70;;
19794;SDS011;10057;59.402;17.866;2022-08-25T00:25:15;8.40;;;1.73;;
19794;SDS011;10057;59.402;17.866;2022-08-25T00:27:42;9.67;;;1.50;;
19794;SDS011;10057;59.402;17.866;2022-08-25T00:30:12;3.50;;;1.67;;
19794;SDS011;10057;59.402;17.866;2022-08-25T00:32:41;4.53;;;1.60;;
19794;SDS011;10057;59.402;17.866;2022-08-25T00:35:16;4.93;;;1.73;;
19794;SDS011;10057;59.402;17.866;2022-08-25T00:37:43;7.53;;;1.43;;
19794;SDS011;10057;59.402;17.866;2022-08-25T00:40:10;6.97;;;1.70;;
19794;SDS011;10057;59.402;17.866;2022-08-25T00:42:37;5.90;;;1.60;;
19794;SDS011;10057;59.402;17.866;2022-08-25T00:45:06;5.30;;;1.60;;
19794;SDS011;10057;59.402;17.866;2022-08-25T00:47:34;5.37;;;1.80;;
19794;SDS011;10057;59.402;17.866;2022-08-25T00:50:02;4.00;;;1.63;;
19794;SDS011;10057;59.402;17.866;2022-08-25T00:52:33;4.50;;;1.60;;
19794;SDS011;10057;59.402;17.866;2022-08-25T00:55:20;3.33;;;1.40;;
19794;SDS011;10057;59.402;17.866;2022-08-25T00:57:55;6.10;;;1.50;;
19794;SDS011;10057;59.402;17.866;2022-08-25T01:00:27;3.33;;;1.60;;
19794;SDS011;10057;59.402;17.866;2022-08-25T01:02:57;6.03;;;2.10;;
19794;SDS011;10057;59.402;17.866;2022-08-25T01:05:25;4.30;;;1.40;;
19794;SDS011;10057;59.402;17.866;2022-08-25T01:07:53;3.57;;;1.10;;
19794;SDS011;10057;59.402;17.866;2022-08-25T01:10:24;5.80;;;1.50;;
19794;SDS011;10057;59.402;17.866;2022-08-25T01:12:52;4.63;;;1.87;;
19794;SDS011;10057;59.402;17.866;2022-08-25T01:15:25;4.30;;;1.43;;
19794;SDS011;10057;59.402;17.866;2022-08-25T01:17:53;3.60;;;1.20;;
19794;SDS011;10057;59.402;17.866;2022-08-25T01:20:24;4.23;;;1.47;;
19794;SDS011;10057;59.402;17.866;2022-08-25T01:22:54;3.17;;;1.30;;
19794;SDS011;10057;59.402;17.866;2022-08-25T01:28:19;7.30;;;1.73;;
19794;SDS011;10057;59.402;17.866;2022-08-25T01:30:46;6.73;;;1.57;;
19794;SDS011;10057;59.402;17.866;2022-08-25T01:33:14;6.23;;;1.70;;
19794;SDS011;10057;59.402;17.866;2022-08-25T01:35:42;7.03;;;1.70;;
19794;SDS011;10057;59.402;17.866;2022-08-25T01:38:10;6.50;;;1.37;;
19794;SDS011;10057;59.402;17.866;2022-08-25T01:40:37;8.13;;;1.80;;
19794;SDS011;10057;59.402;17.866;2022-08-25T01:43:06;5.67;;;1.63;;
19794;SDS011;10057;59.402;17.866;2022-08-25T01:45:41;6.17;;;1.40;;
19794;SDS011;10057;59.402;17.866;2022-08-25T01:48:10;12.43;;;2.10;;
19794;SDS011;10057;59.402;17.866;2022-08-25T01:50:38;4.47;;;1.70;;
19794;SDS011;10057;59.402;17.866;2022-08-25T01:55:44;8.10;;;1.53;;
19794;SDS011;10057;59.402;17.866;2022-08-25T01:58:50;10.87;;;1.80;;
19794;SDS011;10057;59.402;17.866;2022-08-25T02:01:13;12.80;;;1.60;;
19794;SDS011;10057;59.402;17.866;2022-08-25T02:03:46;7.10;;;1.50;;
19794;SDS011;10057;59.402;17.866;2022-08-25T02:06:18;6.37;;;1.67;;
19794;SDS011;10057;59.402;17.866;2022-08-25T02:08:55;10.53;;;2.00;;
19794;SDS011;10057;59.402;17.866;2022-08-25T02:11:24;13.43;;;1.63;;
19794;SDS011;10057;59.402;17.866;2022-08-25T02:13:51;9.73;;;1.70;;
19794;SDS011;10057;59.402;17.866;2022-08-25T02:16:28;5.10;;;1.43;;
19794;SDS011;10057;59.402;17.866;2022-08-25T02:18:58;15.70;;;1.60;;
19794;SDS011;10057;59.402;17.866;2022-08-25T02:21:26;9.80;;;1.50;;
19794;SDS011;10057;59.402;17.866;2022-08-25T02:23:53;5.13;;;1.30;;
19794;SDS011;10057;59.402;17.866;2022-08-25T02:26:20;15.70;;;1.70;;
19794;SDS011;10057;59.402;17.866;2022-08-25T02:28:48;8.00;;;1.30;;
19794;SDS011;10057;59.402;17.866;2022-08-25T02:31:17;7.50;;;1.70;;
19794;SDS011;10057;59.402;17.866;2022-08-25T02:33:45;6.40;;;1.33;;
19794;SDS011;10057;59.402;17.866;2022-08-25T02:36:12;2.50;;;1.30;;
19794;SDS011;10057;59.402;17.866;2022-08-25T02:38:38;6.93;;;1.77;;
19794;SDS011;10057;59.402;17.866;2022-08-25T02:41:12;4.53;;;1.30;;
19794;SDS011;10057;59.402;17.866;2022-08-25T02:43:45;6.53;;;1.33;;
19794;SDS011;10057;59.402;17.866;2022-08-25T02:46:14;5.53;;;1.50;;
19794;SDS011;10057;59.402;17.866;2022-08-25T02:48:42;4.47;;;1.50;;
19794;SDS011;10057;59.402;17.866;2022-08-25T02:51:09;10.40;;;1.60;;
19794;SDS011;10057;59.402;17.866;2022-08-25T02:53:37;3.67;;;1.30;;
19794;SDS011;10057;59.402;17.866;2022-08-25T02:56:06;4.57;;;1.20;;
19794;SDS011;10057;59.402;17.866;2022-08-25T02:58:35;8.47;;;1.70;;
19794;SDS011;10057;59.402;17.866;2022-08-25T03:01:05;5.20;;;1.43;;
19794;SDS011;10057;59.402;17.866;2022-08-25T03:03:32;4.50;;;1.33;;
19794;SDS011;10057;59.402;17.866;2022-08-25T03:06:07;5.13;;;1.50;;
19794;SDS011;10057;59.402;17.866;2022-08-25T03:08:36;7.07;;;1.10;;
19794;SDS011;10057;59.402;17.866;2022-08-25T03:11:03;6.77;;;1.20;;
19794;SDS011;10057;59.402;17.866;2022-08-25T03:13:31;3.60;;;1.10;;
19794;SDS011;10057;59.402;17.866;2022-08-25T03:15:58;5.87;;;1.30;;
19794;SDS011;10057;59.402;17.866;2022-08-25T03:18:25;5.40;;;1.33;;
19794;SDS011;10057;59.402;17.866;2022-08-25T03:20:53;3.47;;;1.67;;
19794;SDS011;10057;59.402;17.866;2022-08-25T03:23:20;2.63;;;1.23;;
19794;SDS011;10057;59.402;17.866;2022-08-25T03:25:46;3.43;;;1.33;;
19794;SDS011;10057;59.402;17.866;2022-08-25T03:28:32;4.83;;;1.30;;
19794;SDS011;10057;59.402;17.866;2022-08-25T03:30:59;2.77;;;1.10;;
19794;SDS011;10057;59.402;17.866;2022-08-25T03:33:27;4.37;;;1.23;;
19794;SDS011;10057;59.402;17.866;2022-08-25T03:35:55;2.90;;;1.20;;
19794;SDS011;10057;59.402;17.866;2022-08-25T03:38:23;4.07;;;1.30;;
19794;SDS011;10057;59.402;17.866;2022-08-25T03:40:51;8.23;;;1.50;;
19794;SDS011;10057;59.402;17.866;2022-08-25T03:43:18;13.00;;;1.67;;
19794;SDS011;10057;59.402;17.866;2022-08-25T03:45:45;5.70;;;1.30;;
19794;SDS011;10057;59.402;17.866;2022-08-25T03:48:14;3.50;;;1.27;;
19794;SDS011;10057;59.402;17.866;2022-08-25T03:50:48;6.00;;;1.50;;
19794;SDS011;10057;59.402;17.866;2022-08-25T03:53:17;4.90;;;1.47;;
19794;SDS011;10057;59.402;17.866;2022-08-25T03:55:45;6.70;;;1.30;;
19794;SDS011;10057;59.402;17.866;2022-08-25T03:58:12;3.70;;;1.40;;
19794;SDS011;10057;59.402;17.866;2022-08-25T04:00:40;7.90;;;1.50;;
19794;SDS011;10057;59.402;17.866;2022-08-25T04:03:07;9.70;;;1.30;;
19794;SDS011;10057;59.402;17.866;2022-08-25T04:05:34;3.67;;;1.10;;
19794;SDS011;10057;59.402;17.866;2022-08-25T04:08:01;3.77;;;1.27;;
19794;SDS011;10057;59.402;17.866;2022-08-25T04:10:29;5.37;;;1.50;;
19794;SDS011;10057;59.402;17.866;2022-08-25T04:12:57;4.80;;;1.50;;
19794;SDS011;10057;59.402;17.866;2022-08-25T04:15:23;6.63;;;1.90;;
19794;SDS011;10057;59.402;17.866;2022-08-25T04:17:55;6.23;;;1.40;;
19794;SDS011;10057;59.402;17.866;2022-08-25T04:20:24;3.70;;;1.33;;
19794;SDS011;10057;59.402;17.866;2022-08-25T04:22:51;6.37;;;1.40;;
19794;SDS011;10057;59.402;17.866;2022-08-25T04:25:18;3.43;;;1.10;;
19794;SDS011;10057;59.402;17.866;2022-08-25T04:27:45;4.73;;;1.50;;
19794;SDS011;10057;59.402;17.866;2022-08-25T04:30:12;7.73;;;1.30;;
19794;SDS011;10057;59.402;17.866;2022-08-25T04:32:39;4.13;;;1.20;;
19794;SDS011;10057;59.402;17.866;2022-08-25T04:35:06;4.20;;;1.27;;
19794;SDS011;10057;59.402;17.866;2022-08-25T04:37:33;2.80;;;1.20;;
19794;SDS011;10057;59.402;17.866;2022-08-25T04:40:00;5.93;;;1.40;;
19794;SDS011;10057;59.402;17.866;2022-08-25T04:42:27;6.47;;;1.67;;
19794;SDS011;10057;59.402;17.866;2022-08-25T04:44:54;9.90;;;1.30;;
19794;SDS011;10057;59.402;17.866;2022-08-25T04:47:21;4.97;;;1.30;;
19794;SDS011;10057;59.402;17.866;2022-08-25T04:49:48;2.27;;;1.30;;
19794;SDS011;10057;59.402;17.866;2022-08-25T04:52:14;4.73;;;1.33;;
19794;SDS011;10057;59.402;17.866;2022-08-25T04:54:41;6.37;;;1.43;;
19794;SDS011;10057;59.402;17.866;2022-08-25T04:57:09;4.10;;;1.40;;
19794;SDS011;10057;59.402;17.866;2022-08-25T04:59:36;3.60;;;1.33;;
19794;SDS011;10057;59.402;17.866;2022-08-25T05:02:04;3.47;;;1.20;;
19794;SDS011;10057;59.402;17.866;2022-08-25T05:04:32;4.83;;;1.60;;
19794;SDS011;10057;59.402;17.866;2022-08-25T05:07:01;3.00;;;1.40;;
19794;SDS011;10057;59.402;17.866;2022-08-25T05:09:29;5.17;;;1.27;;
19794;SDS011;10057;59.402;17.866;2022-08-25T05:11:58;6.33;;;1.40;;
19794;SDS011;10057;59.402;17.866;2022-08-25T05:14:27;4.70;;;1.47;;
19794;SDS011;10057;59.402;17.866;2022-08-25T05:16:54;4.27;;;1.50;;
19794;SDS011;10057;59.402;17.866;2022-08-25T05:19:22;5.43;;;1.37;;
19794;SDS011;10057;59.402;17.866;2022-08-25T05:21:51;5.53;;;1.83;;
19794;SDS011;10057;59.402;17.866;2022-08-25T05:24:19;6.53;;;1.77;;
19794;SDS011;10057;59.402;17.866;2022-08-25T05:26:47;4.13;;;1.60;;
19794;SDS011;10057;59.402;17.866;2022-08-25T05:29:14;10.77;;;2.00;;
19794;SDS011;10057;59.402;17.866;2022-08-25T05:31:40;4.17;;;1.60;;
19794;SDS011;10057;59.402;17.866;2022-08-25T05:34:15;4.83;;;1.70;;
19794;SDS011;10057;59.402;17.866;2022-08-25T05:36:43;5.20;;;2.13;;
19794;SDS011;10057;59.402;17.866;2022-08-25T05:39:14;12.93;;;2.27;;
19794;SDS011;10057;59.402;17.866;2022-08-25T05:41:41;9.03;;;1.90;;
19794;SDS011;10057;59.402;17.866;2022-08-25T05:44:09;4.77;;;2.00;;
19794;SDS011;10057;59.402;17.866;2022-08-25T05:46:37;5.10;;;1.60;;
19794;SDS011;10057;59.402;17.866;2022-08-25T05:49:04;6.27;;;1.73;;
19794;SDS011;10057;59.402;17.866;2022-08-25T05:51:31;14.27;;;2.00;;
19794;SDS011;10057;59.402;17.866;2022-08-25T05:53:59;4.33;;;1.70;;
19794;SDS011;10057;59.402;17.866;2022-08-25T05:56:25;9.77;;;1.73;;
19794;SDS011;10057;59.402;17.866;2022-08-25T05:58:52;5.73;;;1.40;;
19794;SDS011;10057;59.402;17.866;2022-08-25T06:01:20;4.70;;;1.50;;
19794;SDS011;10057;59.402;17.866;2022-08-25T06:04:10;10.07;;;1.50;;
19794;SDS011;10057;59.402;17.866;2022-08-25T06:06:37;6.03;;;1.57;;
19794;SDS011;10057;59.402;17.866;2022-08-25T06:09:05;3.87;;;1.50;;
19794;SDS011;10057;59.402;17.866;2022-08-25T06:11:34;4.87;;;1.43;;
19794;SDS011;10057;59.402;17.866;2022-08-25T06:14:06;5.83;;;1.40;;
19794;SDS011;10057;59.402;17.866;2022-08-25T06:16:34;7.07;;;1.53;;
19794;SDS011;10057;59.402;17.866;2022-08-25T06:19:02;7.60;;;1.40;;
19794;SDS011;10057;59.402;17.866;2022-08-25T06:21:29;6.33;;;1.40;;
19794;SDS011;10057;59.402;17.866;2022-08-25T06:23:55;8.93;;;1.43;;
19794;SDS011;10057;59.402;17.866;2022-08-25T06:26:22;8.23;;;1.37;;
19794;SDS011;10057;59.402;17.866;2022-08-25T06:28:50;6.10;;;1.40;;
19794;SDS011;10057;59.402;17.866;2022-08-25T06:31:18;3.93;;;1.40;;
19794;SDS011;10057;59.402;17.866;2022-08-25T06:33:47;3.73;;;1.30;;
19794;SDS011;10057;59.402;17.866;2022-08-25T06:36:15;3.70;;;1.37;;
19794;SDS011;10057;59.402;17.866;2022-08-25T06:38:42;2.60;;;1.30;;
19794;SDS011;10057;59.402;17.866;2022-08-25T06:41:09;2.97;;;1.10;;
19794;SDS011;10057;59.402;17.866;2022-08-25T06:43:36;3.87;;;1.13;;
19794;SDS011;10057;59.402;17.866;2022-08-25T06:46:13;7.87;;;1.37;;
19794;SDS011;10057;59.402;17.866;2022-08-25T06:48:41;5.83;;;1.10;;
19794;SDS011;10057;59.402;17.866;2022-08-25T06:51:08;1.97;;;1.17;;
19794;SDS011;10057;59.402;17.866;2022-08-25T06:53:39;3.43;;;1.23;;
19794;SDS011;10057;59.402;17.866;2022-08-25T06:56:08;3.20;;;1.00;;
19794;SDS011;10057;59.402;17.866;2022-08-25T06:58:35;4.30;;;1.00;;
19794;SDS011;10057;59.402;17.866;2022-08-25T07:01:09;2.93;;;1.13;;
19794;SDS011;10057;59.402;17.866;2022-08-25T07:03:45;1.90;;;0.90;;
19794;SDS011;10057;59.402;17.866;2022-08-25T07:06:13;2.77;;;0.90;;
19794;SDS011;10057;59.402;17.866;2022-08-25T07:08:44;1.70;;;0.90;;
19794;SDS011;10057;59.402;17.866;2022-08-25T07:11:12;2.20;;;0.80;;
19794;SDS011;10057;59.402;17.866;2022-08-25T07:13:42;2.33;;;0.83;;
19794;SDS011;10057;59.402;17.866;2022-08-25T07:16:09;3.87;;;0.90;;
19794;SDS011;10057;59.402;17.866;2022-08-25T07:18:37;3.93;;;1.00;;
19794;SDS011;10057;59.402;17.866;2022-08-25T07:21:16;3.07;;;1.40;;
19794;SDS011;10057;59.402;17.866;2022-08-25T07:23:48;1.37;;;0.90;;
19794;SDS011;10057;59.402;17.866;2022-08-25T07:26:17;5.00;;;0.97;;
19794;SDS011;10057;59.402;17.866;2022-08-25T07:31:34;4.80;;;1.10;;
19794;SDS011;10057;59.402;17.866;2022-08-25T07:34:05;3.83;;;0.90;;
19794;SDS011;10057;59.402;17.866;2022-08-25T07:36:52;3.40;;;0.83;;
19794;SDS011;10057;59.402;17.866;2022-08-25T07:39:20;4.87;;;0.80;;
19794;SDS011;10057;59.402;17.866;2022-08-25T07:41:48;3.70;;;0.93;;
19794;SDS011;10057;59.402;17.866;2022-08-25T07:44:18;2.07;;;0.90;;
19794;SDS011;10057;59.402;17.866;2022-08-25T07:46:46;1.47;;;0.70;;
19794;SDS011;10057;59.402;17.866;2022-08-25T07:49:17;2.37;;;0.90;;
19794;SDS011;10057;59.402;17.866;2022-08-25T07:51:48;3.50;;;0.90;;
19794;SDS011;10057;59.402;17.866;2022-08-25T07:54:32;2.70;;;1.00;;
19794;SDS011;10057;59.402;17.866;2022-08-25T07:57:04;5.30;;;1.00;;
19794;SDS011;10057;59.402;17.866;2022-08-25T07:59:32;2.93;;;0.80;;
19794;SDS011;10057;59.402;17.866;2022-08-25T08:02:06;5.90;;;0.90;;
19794;SDS011;10057;59.402;17.866;2022-08-25T08:04:44;1.80;;;0.80;;
19794;SDS011;10057;59.402;17.866;2022-08-25T08:07:19;2.13;;;0.90;;
19794;SDS011;10057;59.402;17.866;2022-08-25T08:09:48;2.53;;;0.60;;
19794;SDS011;10057;59.402;17.866;2022-08-25T08:12:35;3.40;;;0.70;;
19794;SDS011;10057;59.402;17.866;2022-08-25T08:15:03;1.70;;;0.83;;
19794;SDS011;10057;59.402;17.866;2022-08-25T08:17:35;3.27;;;1.00;;
19794;SDS011;10057;59.402;17.866;2022-08-25T08:20:04;4.83;;;0.83;;
19794;SDS011;10057;59.402;17.866;2022-08-25T08:22:35;3.95;;;0.85;;
19794;SDS011;10057;59.402;17.866;2022-08-25T08:25:04;11.18;;;0.98;;
19794;SDS011;10057;59.402;17.866;2022-08-25T08:27:35;2.22;;;0.70;;
19794;SDS011;10057;59.402;17.866;2022-08-25T08:30:03;3.35;;;0.70;;
19794;SDS011;10057;59.402;17.866;2022-08-25T08:32:31;3.45;;;0.65;;
19794;SDS011;10057;59.402;17.866;2022-08-25T08:35:17;1.50;;;0.75;;
19794;SDS011;10057;59.402;17.866;2022-08-25T08:37:44;2.10;;;0.80;;
19794;SDS011;10057;59.402;17.866;2022-08-25T08:40:13;1.52;;;0.60;;
19794;SDS011;10057;59.402;17.866;2022-08-25T08:53:54;2.40;;;0.63;;
19794;SDS011;10057;59.402;17.866;2022-08-25T08:59:09;6.60;;;0.73;;
19794;SDS011;10057;59.402;17.866;2022-08-25T09:01:51;2.15;;;0.70;;
19794;SDS011;10057;59.402;17.866;2022-08-25T09:04:31;2.47;;;0.77;;
19794;SDS011;10057;59.402;17.866;2022-08-25T09:07:13;2.10;;;0.60;;
19794;SDS011;10057;59.402;17.866;2022-08-25T09:09:46;2.35;;;0.90;;
19794;SDS011;10057;59.402;17.866;2022-08-25T09:15:00;1.77;;;0.60;;
19794;SDS011;10057;59.402;17.866;2022-08-25T09:20:58;2.60;;;0.80;;
19794;SDS011;10057;59.402;17.866;2022-08-25T09:23:36;1.27;;;0.52;;
19794;SDS011;10057;59.402;17.866;2022-08-25T09:26:15;2.58;;;0.77;;
19794;SDS011;10057;59.402;17.866;2022-08-25T09:28:47;1.02;;;0.80;;
19794;SDS011;10057;59.402;17.866;2022-08-25T09:33:56;6.47;;;0.80;;
19794;SDS011;10057;59.402;17.866;2022-08-25T09:36:25;3.72;;;0.70;;
19794;SDS011;10057;59.402;17.866;2022-08-25T09:38:52;3.58;;;0.68;;
19794;SDS011;10057;59.402;17.866;2022-08-25T09:41:40;3.08;;;0.80;;
19794;SDS011;10057;59.402;17.866;2022-08-25T09:44:16;1.60;;;0.68;;
19794;SDS011;10057;59.402;17.866;2022-08-25T09:46:53;2.55;;;0.73;;
19794;SDS011;10057;59.402;17.866;2022-08-25T09:49:20;1.73;;;0.70;;
19794;SDS011;10057;59.402;17.866;2022-08-25T09:52:02;3.47;;;0.68;;
19794;SDS011;10057;59.402;17.866;2022-08-25T09:57:45;2.20;;;0.60;;
19794;SDS011;10057;59.402;17.866;2022-08-25T10:00:19;1.38;;;0.50;;
19794;SDS011;10057;59.402;17.866;2022-08-25T10:05:31;1.40;;;0.60;;
19794;SDS011;10057;59.402;17.866;2022-08-25T10:08:02;5.10;;;0.95;;
19794;SDS011;10057;59.402;17.866;2022-08-25T10:10:44;1.30;;;0.63;;
19794;SDS011;10057;59.402;17.866;2022-08-25T10:13:19;3.20;;;0.70;;
19794;SDS011;10057;59.402;17.866;2022-08-25T10:16:01;3.28;;;0.75;;
19794;SDS011;10057;59.402;17.866;2022-08-25T10:22:01;3.58;;;0.80;;
19794;SDS011;10057;59.402;17.866;2022-08-25T10:24:31;6.43;;;0.93;;
19794;SDS011;10057;59.402;17.866;2022-08-25T10:27:03;3.35;;;0.90;;
19794;SDS011;10057;59.402;17.866;2022-08-25T10:32:40;2.70;;;0.68;;
19794;SDS011;10057;59.402;17.866;2022-08-25T10:35:29;3.20;;;0.90;;
19794;SDS011;10057;59.402;17.866;2022-08-25T10:41:07;3.28;;;0.90;;
19794;SDS011;10057;59.402;17.866;2022-08-25T10:43:43;1.02;;;0.60;;
19794;SDS011;10057;59.402;17.866;2022-08-25T10:49:37;1.95;;;0.70;;
19794;SDS011;10057;59.402;17.866;2022-08-25T10:52:20;1.10;;;0.80;;
19794;SDS011;10057;59.402;17.866;2022-08-25T10:55:07;3.05;;;0.60;;
19794;SDS011;10057;59.402;17.866;2022-08-25T10:58:05;2.65;;;0.80;;
19794;SDS011;10057;59.402;17.866;2022-08-25T11:00:42;1.23;;;0.70;;
19794;SDS011;10057;59.402;17.866;2022-08-25T11:03:37;1.40;;;0.70;;
19794;SDS011;10057;59.402;17.866;2022-08-25T11:06:11;1.67;;;0.75;;
19794;SDS011;10057;59.402;17.866;2022-08-25T11:08:50;2.25;;;0.60;;
19794;SDS011;10057;59.402;17.866;2022-08-25T11:11:29;2.63;;;0.80;;
19794;SDS011;10057;59.402;17.866;2022-08-25T11:14:08;2.42;;;0.63;;
19794;SDS011;10057;59.402;17.866;2022-08-25T11:16:47;4.50;;;0.60;;
19794;SDS011;10057;59.402;17.866;2022-08-25T11:19:29;0.93;;;0.70;;
19794;SDS011;10057;59.402;17.866;2022-08-25T11:24:38;2.17;;;0.75;;
19794;SDS011;10057;59.402;17.866;2022-08-25T11:27:14;1.90;;;0.60;;
19794;SDS011;10057;59.402;17.866;2022-08-25T11:30:03;2.28;;;0.82;;
19794;SDS011;10057;59.402;17.866;2022-08-25T11:32:34;2.08;;;0.93;;
19794;SDS011;10057;59.402;17.866;2022-08-25T11:35:05;1.85;;;0.60;;
19794;SDS011;10057;59.402;17.866;2022-08-25T11:37:40;2.55;;;0.70;;
19794;SDS011;10057;59.402;17.866;2022-08-25T11:49:02;2.80;;;0.80;;
19794;SDS011;10057;59.402;17.866;2022-08-25T11:51:47;2.65;;;0.75;;
19794;SDS011;10057;59.402;17.866;2022-08-25T11:54:20;1.95;;;0.80;;
19794;SDS011;10057;59.402;17.866;2022-08-25T11:57:03;0.70;;;0.60;;
19794;SDS011;10057;59.402;17.866;2022-08-25T12:02:29;1.95;;;0.70;;
19794;SDS011;10057;59.402;17.866;2022-08-25T12:10:16;0.77;;;0.60;;
19794;SDS011;10057;59.402;17.866;2022-08-25T12:12:58;1.40;;;0.80;;
19794;SDS011;10057;59.402;17.866;2022-08-25T12:18:07;4.90;;;0.73;;
19794;SDS011;10057;59.402;17.866;2022-08-25T12:24:12;2.40;;;0.77;;
19794;SDS011;10057;59.402;17.866;2022-08-25T12:37:28;2.15;;;0.50;;
19794;SDS011;10057;59.402;17.866;2022-08-25T12:39:59;1.27;;;0.70;;
19794;SDS011;10057;59.402;17.866;2022-08-25T12:42:30;1.73;;;0.88;;
19794;SDS011;10057;59.402;17.866;2022-08-25T12:45:46;1.23;;;0.60;;
19794;SDS011;10057;59.402;17.866;2022-08-25T12:50:59;3.92;;;0.90;;
19794;SDS011;10057;59.402;17.866;2022-08-25T12:53:40;1.38;;;0.63;;
19794;SDS011;10057;59.402;17.866;2022-08-25T12:56:31;2.50;;;0.70;;
19794;SDS011;10057;59.402;17.866;2022-08-25T13:07:54;2.70;;;0.60;;
19794;SDS011;10057;59.402;17.866;2022-08-25T13:13:18;1.17;;;0.63;;
19794;SDS011;10057;59.402;17.866;2022-08-25T13:16:06;3.22;;;0.63;;
19794;SDS011;10057;59.402;17.866;2022-08-25T13:18:40;2.53;;;0.70;;
19794;SDS011;10057;59.402;17.866;2022-08-25T13:23:37;2.88;;;0.75;;
19794;SDS011;10057;59.402;17.866;2022-08-25T13:26:08;2.50;;;0.70;;
19794;SDS011;10057;59.402;17.866;2022-08-25T13:28:40;2.03;;;0.80;;
19794;SDS011;10057;59.402;17.866;2022-08-25T13:31:19;1.00;;;0.63;;
19794;SDS011;10057;59.402;17.866;2022-08-25T13:34:06;2.42;;;0.60;;
19794;SDS011;10057;59.402;17.866;2022-08-25T13:36:45;2.80;;;0.60;;
19794;SDS011;10057;59.402;17.866;2022-08-25T13:39:32;2.03;;;0.65;;
19794;SDS011;10057;59.402;17.866;2022-08-25T13:42:20;1.00;;;0.60;;
19794;SDS011;10057;59.402;17.866;2022-08-25T13:44:54;1.73;;;0.73;;
19794;SDS011;10057;59.402;17.866;2022-08-25T13:47:31;1.52;;;0.75;;
19794;SDS011;10057;59.402;17.866;2022-08-25T13:50:14;0.73;;;0.60;;
19794;SDS011;10057;59.402;17.866;2022-08-25T13:55:23;1.30;;;0.90;;
19794;SDS011;10057;59.402;17.866;2022-08-25T13:57:55;3.38;;;0.68;;
19794;SDS011;10057;59.402;17.866;2022-08-25T14:00:25;3.50;;;0.70;;
19794;SDS011;10057;59.402;17.866;2022-08-25T14:03:32;4.55;;;0.90;;
19794;SDS011;10057;59.402;17.866;2022-08-25T14:08:35;4.53;;;0.68;;
19794;SDS011;10057;59.402;17.866;2022-08-25T14:11:12;2.95;;;0.80;;
19794;SDS011;10057;59.402;17.866;2022-08-25T14:13:59;2.50;;;0.73;;
19794;SDS011;10057;59.402;17.866;2022-08-25T14:16:51;1.73;;;0.57;;
19794;SDS011;10057;59.402;17.866;2022-08-25T14:19:46;0.98;;;0.60;;
19794;SDS011;10057;59.402;17.866;2022-08-25T14:22:14;2.45;;;0.70;;
19794;SDS011;10057;59.402;17.866;2022-08-25T14:24:41;0.80;;;0.50;;
19794;SDS011;10057;59.402;17.866;2022-08-25T14:27:09;0.85;;;0.60;;
19794;SDS011;10057;59.402;17.866;2022-08-25T14:29:37;0.95;;;0.57;;
19794;SDS011;10057;59.402;17.866;2022-08-25T14:32:06;0.77;;;0.60;;
19794;SDS011;10057;59.402;17.866;2022-08-25T14:34:38;2.15;;;0.65;;
19794;SDS011;10057;59.402;17.866;2022-08-25T14:37:15;2.53;;;0.60;;
19794;SDS011;10057;59.402;17.866;2022-08-25T14:39:44;2.67;;;0.90;;
19794;SDS011;10057;59.402;17.866;2022-08-25T14:42:12;0.88;;;0.55;;
19794;SDS011;10057;59.402;17.866;2022-08-25T14:44:39;2.25;;;0.68;;
19794;SDS011;10057;59.402;17.866;2022-08-25T14:47:06;0.77;;;0.47;;
19794;SDS011;10057;59.402;17.866;2022-08-25T14:49:37;4.72;;;0.60;;
19794;SDS011;10057;59.402;17.866;2022-08-25T14:52:14;1.95;;;0.57;;
19794;SDS011;10057;59.402;17.866;2022-08-25T14:54:47;1.23;;;0.70;;
19794;SDS011;10057;59.402;17.866;2022-08-25T14:57:14;0.75;;;0.52;;
19794;SDS011;10057;59.402;17.866;2022-08-25T14:59:41;1.67;;;0.77;;
19794;SDS011;10057;59.402;17.866;2022-08-25T15:02:08;0.80;;;0.60;;
19794;SDS011;10057;59.402;17.866;2022-08-25T15:04:39;1.15;;;0.60;;
19794;SDS011;10057;59.402;17.866;2022-08-25T15:07:17;2.47;;;0.80;;
19794;SDS011;10057;59.402;17.866;2022-08-25T15:10:05;3.20;;;0.80;;
19794;SDS011;10057;59.402;17.866;2022-08-25T15:12:39;0.93;;;0.60;;
19794;SDS011;10057;59.402;17.866;2022-08-25T15:15:13;2.30;;;0.50;;
19794;SDS011;10057;59.402;17.866;2022-08-25T15:17:40;0.88;;;0.63;;
19794;SDS011;10057;59.402;17.866;2022-08-25T15:20:10;1.10;;;0.60;;
19794;SDS011;10057;59.402;17.866;2022-08-25T15:22:37;0.77;;;0.63;;
19794;SDS011;10057;59.402;17.866;2022-08-25T15:25:06;2.33;;;0.90;;
19794;SDS011;10057;59.402;17.866;2022-08-25T15:27:34;2.55;;;1.00;;
19794;SDS011;10057;59.402;17.866;2022-08-25T15:30:02;1.48;;;0.82;;
19794;SDS011;10057;59.402;17.866;2022-08-25T15:32:32;2.30;;;0.60;;
19794;SDS011;10057;59.402;17.866;2022-08-25T15:35:03;0.80;;;0.60;;
19794;SDS011;10057;59.402;17.866;2022-08-25T15:37:30;5.78;;;0.73;;
19794;SDS011;10057;59.402;17.866;2022-08-25T15:39:57;1.48;;;0.80;;
19794;SDS011;10057;59.402;17.866;2022-08-25T15:42:25;1.50;;;0.60;;
19794;SDS011;10057;59.402;17.866;2022-08-25T15:44:52;4.10;;;0.70;;
19794;SDS011;10057;59.402;17.866;2022-08-25T15:47:22;2.85;;;0.60;;
19794;SDS011;10057;59.402;17.866;2022-08-25T15:49:49;2.97;;;0.80;;
19794;SDS011;10057;59.402;17.866;2022-08-25T15:52:27;1.65;;;0.70;;
19794;SDS011;10057;59.402;17.866;2022-08-25T15:55:12;3.67;;;0.77;;
19794;SDS011;10057;59.402;17.866;2022-08-25T15:57:39;0.80;;;0.60;;
19794;SDS011;10057;59.402;17.866;2022-08-25T16:00:08;1.05;;;0.50;;
19794;SDS011;10057;59.402;17.866;2022-08-25T16:02:38;2.05;;;0.70;;
19794;SDS011;10057;59.402;17.866;2022-08-25T16:05:06;0.95;;;0.60;;
19794;SDS011;10057;59.402;17.866;2022-08-25T16:07:42;0.95;;;0.60;;
19794;SDS011;10057;59.402;17.866;2022-08-25T16:10:17;1.48;;;0.60;;
19794;SDS011;10057;59.402;17.866;2022-08-25T16:12:45;1.58;;;0.63;;
19794;SDS011;10057;59.402;17.866;2022-08-25T16:15:17;4.03;;;1.23;;
19794;SDS011;10057;59.402;17.866;2022-08-25T16:17:49;1.50;;;0.60;;
19794;SDS011;10057;59.402;17.866;2022-08-25T16:20:16;2.13;;;0.77;;
19794;SDS011;10057;59.402;17.866;2022-08-25T16:22:45;1.45;;;0.98;;
19794;SDS011;10057;59.402;17.866;2022-08-25T16:25:13;1.27;;;0.80;;
19794;SDS011;10057;59.402;17.866;2022-08-25T16:27:42;2.05;;;0.80;;
19794;SDS011;10057;59.402;17.866;2022-08-25T16:30:11;1.25;;;0.90;;
19794;SDS011;10057;59.402;17.866;2022-08-25T16:32:43;5.63;;;0.70;;
19794;SDS011;10057;59.402;17.866;2022-08-25T16:35:12;2.13;;;0.70;;
19794;SDS011;10057;59.402;17.866;2022-08-25T16:37:44;2.03;;;0.80;;
19794;SDS011;10057;59.402;17.866;2022-08-25T16:40:13;3.88;;;0.80;;
19794;SDS011;10057;59.402;17.866;2022-08-25T16:42:43;1.95;;;0.70;;
19794;SDS011;10057;59.402;17.866;2022-08-25T16:45:10;1.02;;;0.80;;
19794;SDS011;10057;59.402;17.866;2022-08-25T16:47:37;1.35;;;0.75;;